• Join FlightAware (Why Join?)
  • Login
  • US Flag 
05:12PM EDT


 

Airport Tracker/Info


-or-


 

Live Flight TrackerFlight Track Log ✈ EJA929 ✈ 20-Aug-2013 ✈ KTEB - KLCI

Flight Track Log - Related Links

Times and Time Zones

All times are in EDT time to prevent confusion due to time zone crossing. See the EJA929 flight status page for this flight to view local times or setup timezone preferences in your user account.

Time Position Orientation Groundspeed Altitude Reporting Facility
EDT Latitude Longitude Course Direction KTS MPH feet Rate Location/Type
11:06AM 40.8167 -74.1333 72° East 204 235 1,500  Level New York TRACON
11:07AM 40.8167 -74.2167 270° West 229 264 4,600 2,160 Climbing New York TRACON
11:08AM 40.8667 -74.2500 333° Northwest 274 315 5,900 720 Climbing New York TRACON
11:09AM 40.9333 -74.2333 11° North 281 323 6,000  Climbing New York TRACON
11:10AM 41.0000 -74.2000 21° North 280 322 6,000  Level New York TRACON
11:11AM 41.2663 -73.6180 72° East  Level FlightAware Approximate
11:11AM 41.0667 -74.1667 21° North 270 311 6,000  Level New York TRACON
11:12AM 41.1500 -74.1333 17° North 273 314 6,400 2,040 Climbing New York TRACON
11:13AM 41.1833 -74.0500 62° Northeast 295 339 10,100 2,520 Climbing New York TRACON
11:15AM 41.2381 -73.7733 75° East 343 395 15,000 2,040 Climbing Boston Center
11:16AM 41.2686 -73.6275 74° East 362 417 17,100 1,860 Climbing Boston Center
11:17AM 41.3219 -73.5236 56° Northeast 367 422 18,800 1,620 Climbing Boston Center
11:18AM 41.4000 -73.4253 43° Northeast 372 428 20,500 1,920 Climbing Boston Center
11:19AM 41.5025 -73.3853 16° North 363 418 22,600 1,260 Climbing Boston Center
11:20AM 41.6169 -73.3897 358° North 373 429 23,000 180 Climbing Boston Center
11:21AM 41.7442 -73.3861 North 409 471 23,000  Level Boston Center
11:22AM 41.8733 -73.3825 North 439 505 23,000  Level Boston Center
11:23AM 42.0006 -73.3786 North 452 520 23,000  Level Boston Center
11:24AM 42.1297 -73.3667 North 459 528 23,000  Level Boston Center
11:25AM 42.2508 -73.3544 North 453 521 23,000  Level Boston Center
11:26AM 42.3536 -73.2575 35° Northeast 430 495 23,000  Level Boston Center
11:27AM 42.4297 -73.1153 54° Northeast 430 495 23,000  Level Boston Center
11:28AM 42.5033 -72.9694 56° Northeast 444 511 23,000 -60 Level Boston Center
11:29AM 42.5789 -72.8208 55° Northeast 461 531 22,900 -1,320 Descending Boston Center
11:30AM 42.6522 -72.6772 55° Northeast 472 543 20,400 -2,640 Descending Boston Center
11:31AM 42.7464 -72.5644 41° Northeast 424 488 17,800 -2,580 Descending Boston Center
11:32AM 42.8422 -72.4769 34° Northeast 414 476 15,400 -1,440 Descending Boston Center
11:33AM 42.9278 -72.3664 43° Northeast 414 476 14,900 -1,680 Descending Boston Center
11:34AM 42.9983 -72.2614 47° Northeast 401 461 12,100 -2,160 Descending Boston Center
11:35AM 43.0628 -72.1700 46° Northeast 369 425 10,700 -1,440 Descending Boston Center
11:36AM 43.1292 -72.0703 48° Northeast 333 383 9,300 -840 Descending Boston Center
11:37AM 43.1789 -71.9989 46° Northeast 301 346 9,000 -900 Descending Boston Center
11:38AM 43.2392 -71.9128 46° Northeast 285 328 7,600 -1,020 Descending Boston Center
11:39AM 43.2867 -71.8439 47° Northeast 270 311 7,000 -1,020 Descending Boston Center
11:40AM 43.3425 -71.7606 47° Northeast 265 305 5,600 -1,020 Descending Boston Center
11:41AM 43.3858 -71.6972 47° Northeast 260 299 5,000 -840 Descending Boston Center
11:42AM 43.4417 -71.6367 38° Northeast 249 287 4,000 -780 Descending Boston Center
11:43AM 43.4956 -71.5986 27° Northeast 235 270 3,500 3,480 Descending Boston Center
11:44AM 43.5536 -71.5550 29° Northeast 235 270 11,000 3,780 Climbing Boston Center
11:45AM 43.6094 -71.5111 30° Northeast 235 270 11,000  Level Boston Center
11:46AM 43.6675 -71.4672 29° Northeast 235 270 11,000  Level Boston Center
11:47AM 43.7006 -71.4408 30° Northeast 235 270 11,000  Level Boston Center
11:48AM 43.7006 -71.4408 208° Southwest 235 270 11,000  Level Boston Center
11:50AM 43.5667 -71.4167 175° South  Level FlightAware Approximate
11:57AM 43.5730 -71.4178 175° South  Level Estimated
11:58AM 43.5667 -71.4167 175° South  Level FlightAware Approximate
11:59AM 43.5730 -71.4178 175° South  Level Estimated
12:00PM 43.5667 -71.4167 175° South  Level FlightAware Approximate